createdAt,value
2023-05-10T00:00:16.574Z,51.89
2023-05-10T00:03:05.808Z,51.71
2023-05-10T00:05:33.741Z,51.99
2023-05-10T00:08:01.542Z,51.88
2023-05-10T00:10:29.362Z,51.48
2023-05-10T00:12:57.158Z,51.68
2023-05-10T00:15:24.997Z,51.71
2023-05-10T00:17:52.979Z,51.94
2023-05-10T00:20:21.388Z,52.29
2023-05-10T00:22:49.299Z,52.10
2023-05-10T00:25:17.325Z,52.01
2023-05-10T00:27:45.138Z,52.09
2023-05-10T00:30:13.192Z,52.41
2023-05-10T00:32:41.272Z,52.34
2023-05-10T00:35:09.406Z,52.34
2023-05-10T00:37:37.330Z,52.41
2023-05-10T00:40:07.015Z,52.54
2023-05-10T00:42:34.866Z,52.73
2023-05-10T00:45:05.316Z,52.86
2023-05-10T00:47:34.076Z,53.10
2023-05-10T00:50:02.808Z,53.16
2023-05-10T00:52:31.495Z,53.38
2023-05-10T00:55:01.025Z,53.31
2023-05-10T00:57:29.289Z,53.90
2023-05-10T00:59:58.719Z,53.65
2023-05-10T01:02:26.636Z,53.94
2023-05-10T01:04:55.805Z,53.59
2023-05-10T01:07:24.298Z,53.80
2023-05-10T01:09:52.505Z,54.42
2023-05-10T01:12:20.754Z,54.44
2023-05-10T01:14:49.405Z,54.43
2023-05-10T01:17:18.415Z,54.62
2023-05-10T01:19:48.530Z,54.73
2023-05-10T01:23:02.098Z,54.97
2023-05-10T01:25:45.528Z,54.64
2023-05-10T01:28:40.002Z,54.77
2023-05-10T01:31:26.685Z,55.21
2023-05-10T01:34:13.999Z,55.90
2023-05-10T01:36:59.576Z,55.96
2023-05-10T01:39:56.167Z,55.19
2023-05-10T01:42:34.636Z,55.86
2023-05-10T01:45:04.180Z,55.88
2023-05-10T01:47:41.355Z,55.40
2023-05-10T01:50:18.096Z,55.80
2023-05-10T01:52:55.571Z,55.49
2023-05-10T01:55:29.510Z,56.22
2023-05-10T01:58:15.325Z,56.54
2023-05-10T02:00:48.199Z,56.34
2023-05-10T02:03:17.137Z,56.19
2023-05-10T02:05:49.222Z,56.19
2023-05-10T02:08:19.597Z,55.92
2023-05-10T02:10:50.184Z,55.98
2023-05-10T02:13:20.271Z,55.72
2023-05-10T02:15:50.750Z,55.69
2023-05-10T02:18:19.607Z,55.90
2023-05-10T02:20:48.184Z,55.98
2023-05-10T02:23:19.178Z,55.94
2023-05-10T02:25:48.977Z,55.75
2023-05-10T02:28:18.614Z,56.01
2023-05-10T02:30:48.567Z,55.96
2023-05-10T02:33:17.779Z,56.17
2023-05-10T02:35:47.864Z,56.16
2023-05-10T02:38:17.036Z,56.60
2023-05-10T02:40:45.435Z,56.89
2023-05-10T02:43:17.341Z,56.93
2023-05-10T02:45:48.549Z,56.66
2023-05-10T02:48:17.543Z,56.86
2023-05-10T02:50:52.152Z,56.88
2023-05-10T02:53:27.553Z,56.91
2023-05-10T02:56:00.441Z,57.09
2023-05-10T02:58:28.531Z,57.31
2023-05-10T03:00:56.448Z,57.96
2023-05-10T03:03:24.372Z,57.54
2023-05-10T03:05:54.695Z,57.90
2023-05-10T03:08:24.713Z,57.68
2023-05-10T03:11:13.644Z,57.56
2023-05-10T03:14:03.683Z,57.73
2023-05-10T03:17:08.212Z,58.01
2023-05-10T03:19:51.823Z,57.98
2023-05-10T03:22:38.155Z,57.80
2023-05-10T03:25:11.091Z,57.99
2023-05-10T03:27:42.833Z,58.13
2023-05-10T03:30:14.076Z,57.85
2023-05-10T03:32:42.716Z,58.12
2023-05-10T03:35:13.248Z,58.37
2023-05-10T03:37:41.211Z,58.17
2023-05-10T03:40:10.961Z,58.38
2023-05-10T03:42:40.190Z,58.33
2023-05-10T03:45:09.466Z,57.90
2023-05-10T03:47:37.430Z,57.86
2023-05-10T03:50:07.887Z,57.89
2023-05-10T03:52:35.812Z,57.78
2023-05-10T03:55:04.613Z,57.61
2023-05-10T03:57:33.169Z,57.52
2023-05-10T04:00:01.788Z,57.85
2023-05-10T04:02:30.983Z,57.74
2023-05-10T04:04:59.052Z,57.45
2023-05-10T04:07:34.501Z,57.50
2023-05-10T04:10:02.572Z,57.52
2023-05-10T04:12:32.869Z,57.47
2023-05-10T04:15:01.272Z,57.17
2023-05-10T04:17:29.167Z,57.49
2023-05-10T04:19:57.047Z,57.23
2023-05-10T04:22:24.884Z,57.37
2023-05-10T04:24:52.675Z,57.10
2023-05-10T04:27:20.834Z,57.43
2023-05-10T04:29:49.334Z,57.56
2023-05-10T04:32:18.146Z,56.92
2023-05-10T04:34:45.988Z,56.86
2023-05-10T04:37:13.850Z,56.74
2023-05-10T04:39:43.625Z,56.99
2023-05-10T04:42:12.286Z,57.01
2023-05-10T04:44:40.636Z,56.73
2023-05-10T04:47:09.910Z,56.49
2023-05-10T04:49:39.037Z,56.38
2023-05-10T04:52:07.180Z,56.09
2023-05-10T04:54:35.616Z,55.88
2023-05-10T04:57:03.580Z,56.53
2023-05-10T04:59:31.431Z,56.48
2023-05-10T05:01:59.325Z,56.18
2023-05-10T05:04:27.221Z,55.90
2023-05-10T05:06:55.050Z,55.28
2023-05-10T05:09:22.838Z,55.69
2023-05-10T05:11:50.708Z,55.85
2023-05-10T05:14:18.611Z,55.55
2023-05-10T05:16:46.341Z,55.40
2023-05-10T05:19:14.103Z,55.29
2023-05-10T05:21:42.052Z,54.85
2023-05-10T05:24:11.174Z,54.92
2023-05-10T05:26:39.703Z,54.94
2023-05-10T05:29:07.655Z,54.69
2023-05-10T05:31:35.543Z,54.92
2023-05-10T05:34:03.357Z,54.85
2023-05-10T05:36:32.450Z,54.48
2023-05-10T05:39:00.263Z,54.33
2023-05-10T05:41:28.077Z,54.57
2023-05-10T05:43:56.078Z,54.83
2023-05-10T05:46:23.893Z,53.84
2023-05-10T05:48:51.707Z,54.37
2023-05-10T05:51:19.607Z,54.41
2023-05-10T05:53:47.364Z,54.20
2023-05-10T05:56:15.220Z,53.72
2023-05-10T05:58:43.105Z,54.23
2023-05-10T06:01:10.870Z,53.48
2023-05-10T06:03:38.779Z,53.22
2023-05-10T06:06:06.947Z,53.63
2023-05-10T06:08:35.165Z,53.24
2023-05-10T06:11:04.938Z,53.34
2023-05-10T06:13:34.348Z,53.31
2023-05-10T06:16:03.771Z,53.25
2023-05-10T06:18:31.853Z,52.60
2023-05-10T06:20:59.644Z,52.55
2023-05-10T06:23:27.630Z,52.23
2023-05-10T06:25:55.810Z,51.94
2023-05-10T06:28:23.830Z,51.90
2023-05-10T06:30:51.598Z,52.15
2023-05-10T06:33:19.424Z,51.98
2023-05-10T06:35:47.233Z,51.42
2023-05-10T06:38:15.317Z,51.10
2023-05-10T06:40:43.646Z,50.66
2023-05-10T06:43:11.608Z,50.55
2023-05-10T06:45:39.428Z,49.99
2023-05-10T06:48:08.255Z,49.78
2023-05-10T06:50:36.212Z,50.48
2023-05-10T06:53:04.728Z,50.13
2023-05-10T06:55:32.607Z,50.26
2023-05-10T06:58:00.508Z,49.74
2023-05-10T07:00:28.461Z,49.38
2023-05-10T07:02:56.753Z,49.28
2023-05-10T07:05:25.005Z,49.63
2023-05-10T07:07:52.837Z,49.26
2023-05-10T07:10:20.809Z,48.47
2023-05-10T07:12:49.026Z,47.83
2023-05-10T07:15:17.235Z,48.46
2023-05-10T07:17:46.482Z,48.59
2023-05-10T07:20:14.477Z,48.13
2023-05-10T07:22:42.315Z,48.42
2023-05-10T07:25:10.696Z,47.93
2023-05-10T07:27:38.543Z,47.45
2023-05-10T07:30:07.331Z,46.78
2023-05-10T07:32:35.304Z,46.79
2023-05-10T07:35:04.321Z,46.98
2023-05-10T07:37:32.222Z,47.17
2023-05-10T07:40:00.106Z,47.14
2023-05-10T07:42:27.980Z,47.25
2023-05-10T07:44:55.847Z,46.84
2023-05-10T07:47:24.352Z,45.33
2023-05-10T07:49:52.310Z,46.14
2023-05-10T07:52:22.413Z,46.05
2023-05-10T07:54:50.587Z,45.48
2023-05-10T07:57:19.129Z,45.22
2023-05-10T07:59:47.668Z,44.97
2023-05-10T08:02:15.473Z,44.47
2023-05-10T08:04:43.660Z,45.08
2023-05-10T08:07:12.184Z,44.83
2023-05-10T08:09:39.973Z,45.67
2023-05-10T08:12:07.734Z,47.39
2023-05-10T08:14:37.495Z,47.74
2023-05-10T08:17:05.498Z,47.53
2023-05-10T08:19:33.435Z,45.44
2023-05-10T08:22:01.351Z,46.30
2023-05-10T08:24:29.222Z,47.69
2023-05-10T08:26:57.162Z,47.26
2023-05-10T08:29:26.625Z,46.32
2023-05-10T08:31:54.548Z,45.13
2023-05-10T08:34:22.669Z,44.42
2023-05-10T08:36:50.763Z,45.42
2023-05-10T08:39:29.211Z,44.36
2023-05-10T08:42:02.401Z,43.13
2023-05-10T08:44:36.622Z,44.34
2023-05-10T08:47:08.171Z,42.38
2023-05-10T08:49:37.948Z,42.61
2023-05-10T08:52:08.260Z,42.00
2023-05-10T08:54:37.412Z,42.78
2023-05-10T08:57:05.641Z,42.42
2023-05-10T08:59:34.160Z,41.07
2023-05-10T09:02:03.082Z,41.74
2023-05-10T09:04:32.160Z,44.43
2023-05-10T09:07:00.464Z,44.17
2023-05-10T09:09:28.940Z,40.71
2023-05-10T09:11:57.209Z,40.28
2023-05-10T09:14:26.159Z,40.97
2023-05-10T09:16:56.375Z,45.38
2023-05-10T09:19:24.431Z,45.64
2023-05-10T09:21:52.281Z,44.22
2023-05-10T09:24:20.437Z,43.17
2023-05-10T09:26:49.769Z,42.95
2023-05-10T09:29:18.208Z,39.28
2023-05-10T09:31:52.602Z,38.05
2023-05-10T09:34:41.347Z,38.61
2023-05-10T09:37:09.345Z,40.41
2023-05-10T09:39:38.802Z,38.92
2023-05-10T09:42:11.222Z,39.05
2023-05-10T09:44:39.387Z,40.03
2023-05-10T09:47:33.700Z,36.74
2023-05-10T09:50:07.820Z,37.04
2023-05-10T09:53:04.120Z,37.78
2023-05-10T09:55:47.563Z,37.57
2023-05-10T09:58:15.911Z,40.66
2023-05-10T10:00:46.159Z,39.47
2023-05-10T10:03:24.073Z,37.61
2023-05-10T10:05:52.380Z,37.67
2023-05-10T10:08:20.330Z,33.82
2023-05-10T10:10:48.402Z,35.38
2023-05-10T10:13:16.738Z,34.60
2023-05-10T10:15:45.691Z,37.73
2023-05-10T10:18:16.211Z,35.67
2023-05-10T10:20:44.742Z,32.93
2023-05-10T10:23:13.169Z,35.41
2023-05-10T10:25:42.816Z,32.94
2023-05-10T10:28:28.462Z,34.61
2023-05-10T10:31:01.827Z,36.69
2023-05-10T10:33:58.057Z,35.10
2023-05-10T10:36:28.272Z,38.63
2023-05-10T10:39:02.238Z,40.87
2023-05-10T10:42:01.101Z,38.45
2023-05-10T10:44:34.403Z,38.37
2023-05-10T10:47:06.735Z,36.67
2023-05-10T10:49:41.596Z,34.40
2023-05-10T10:52:34.558Z,35.24
2023-05-10T10:55:14.627Z,36.45
2023-05-10T10:57:52.715Z,38.75
2023-05-10T11:00:25.038Z,38.79
2023-05-10T11:03:19.999Z,38.46
2023-05-10T11:05:49.692Z,37.15
2023-05-10T11:08:35.126Z,36.08
2023-05-10T11:11:10.316Z,36.98
2023-05-10T11:13:41.927Z,36.92
2023-05-10T11:16:12.719Z,36.87
2023-05-10T11:18:41.209Z,35.18
2023-05-10T11:21:11.612Z,37.41
2023-05-10T11:23:45.682Z,39.08
2023-05-10T11:26:14.264Z,34.58
2023-05-10T11:28:48.161Z,35.66
2023-05-10T11:31:18.195Z,36.20
2023-05-10T11:33:51.553Z,36.16
2023-05-10T11:36:26.885Z,34.68
2023-05-10T11:38:56.454Z,37.94
2023-05-10T11:41:26.138Z,35.40
2023-05-10T11:43:55.673Z,37.40
2023-05-10T11:46:27.568Z,36.74
2023-05-10T11:49:02.541Z,34.89
2023-05-10T11:51:34.533Z,33.40
2023-05-10T11:54:09.765Z,35.45
2023-05-10T11:56:41.534Z,32.42
2023-05-10T11:59:09.579Z,34.22
2023-05-10T12:01:37.809Z,35.02
2023-05-10T12:04:05.894Z,37.20
2023-05-10T12:06:41.445Z,34.71
2023-05-10T12:09:09.603Z,34.97
2023-05-10T12:11:42.802Z,33.15
2023-05-10T12:14:12.499Z,30.84
2023-05-10T12:16:40.824Z,30.82
2023-05-10T12:19:09.055Z,28.77
2023-05-10T12:21:37.132Z,30.72
2023-05-10T12:24:06.292Z,29.41
2023-05-10T12:26:36.237Z,29.79
2023-05-10T12:29:19.901Z,30.56
2023-05-10T12:31:55.168Z,30.52
2023-05-10T12:34:35.852Z,30.96
2023-05-10T12:37:04.802Z,29.20
2023-05-10T12:39:45.354Z,29.91
2023-05-10T12:42:13.323Z,30.03
2023-05-10T12:44:41.253Z,30.59
2023-05-10T12:47:09.102Z,32.16
2023-05-10T12:49:37.034Z,30.80
2023-05-10T12:52:05.409Z,29.60
2023-05-10T12:54:33.204Z,31.94
2023-05-10T12:57:01.210Z,30.40
2023-05-10T12:59:29.031Z,31.10
2023-05-10T13:01:58.709Z,30.51
2023-05-10T13:04:26.726Z,29.45
2023-05-10T13:06:57.121Z,30.17
2023-05-10T13:09:26.207Z,29.80
2023-05-10T13:11:55.135Z,28.92
2023-05-10T13:14:23.044Z,28.62
2023-05-10T13:16:50.962Z,29.07
2023-05-10T13:19:18.918Z,29.17
2023-05-10T13:21:47.152Z,27.95
2023-05-10T13:24:14.980Z,28.80
2023-05-10T13:26:42.814Z,28.06
2023-05-10T13:29:10.881Z,29.55
2023-05-10T13:31:38.774Z,29.65
2023-05-10T13:34:07.058Z,29.18
2023-05-10T13:36:34.893Z,29.06
2023-05-10T13:39:04.452Z,28.71
2023-05-10T13:41:32.695Z,28.52
2023-05-10T13:44:00.794Z,28.82
2023-05-10T13:46:31.142Z,28.31
2023-05-10T13:48:58.987Z,28.27
2023-05-10T13:51:26.839Z,27.75
2023-05-10T13:53:54.624Z,28.99
2023-05-10T13:57:38.952Z,29.08
2023-05-10T14:00:26.164Z,29.03
2023-05-10T14:02:55.116Z,28.56
2023-05-10T14:05:26.200Z,28.01
2023-05-10T14:07:55.264Z,29.03
2023-05-10T14:10:23.350Z,29.30
2023-05-10T14:12:51.878Z,29.98
2023-05-10T14:15:20.335Z,29.31
2023-05-10T14:17:48.818Z,29.62
2023-05-10T14:20:16.953Z,29.39
2023-05-10T14:22:44.931Z,28.92
2023-05-10T14:25:13.575Z,29.28
2023-05-10T14:27:41.343Z,29.10
2023-05-10T14:30:09.940Z,29.23
2023-05-10T14:32:38.132Z,30.19
2023-05-10T14:35:07.216Z,29.57
2023-05-10T14:37:35.612Z,30.53
2023-05-10T14:40:05.364Z,31.96
2023-05-10T14:42:33.267Z,30.70
2023-05-10T14:45:01.244Z,30.01
2023-05-10T14:47:29.591Z,31.77
2023-05-10T14:49:57.375Z,31.03
2023-05-10T14:53:41.123Z,29.53
2023-05-10T14:56:29.018Z,29.81
2023-05-10T14:58:57.794Z,29.90
2023-05-10T15:01:27.286Z,29.88
2023-05-10T15:03:56.189Z,29.90
2023-05-10T15:06:32.519Z,30.00
2023-05-10T15:09:02.578Z,30.50
2023-05-10T15:11:31.225Z,30.65
2023-05-10T15:13:59.792Z,30.98
2023-05-10T15:16:27.980Z,30.53
2023-05-10T15:18:56.298Z,29.99
2023-05-10T15:21:24.181Z,29.31
2023-05-10T15:23:52.040Z,29.30
2023-05-10T15:26:19.802Z,29.65
2023-05-10T15:28:47.636Z,30.88
2023-05-10T15:31:15.509Z,32.46
2023-05-10T15:33:44.252Z,30.91
2023-05-10T15:36:12.330Z,31.19
2023-05-10T15:38:40.346Z,30.72
2023-05-10T15:41:08.202Z,31.16
2023-05-10T15:43:36.578Z,30.31
2023-05-10T15:46:06.883Z,30.60
2023-05-10T15:48:34.806Z,30.70
2023-05-10T15:51:02.735Z,30.88
2023-05-10T15:53:30.747Z,30.90
2023-05-10T15:55:58.523Z,31.59
2023-05-10T15:58:26.377Z,31.25
2023-05-10T16:00:54.194Z,29.76
2023-05-10T16:03:22.192Z,29.75
2023-05-10T16:05:50.031Z,31.15
2023-05-10T16:08:17.820Z,32.31
2023-05-10T16:10:45.835Z,32.36
2023-05-10T16:13:15.123Z,32.16
2023-05-10T16:15:43.228Z,31.62
2023-05-10T16:18:11.239Z,31.84
2023-05-10T16:20:39.212Z,31.74
2023-05-10T16:23:07.814Z,31.04
2023-05-10T16:25:36.181Z,30.18
2023-05-10T16:28:04.102Z,30.59
2023-05-10T16:30:32.336Z,31.52
2023-05-10T16:33:02.094Z,32.04
2023-05-10T16:35:30.222Z,31.70
2023-05-10T16:37:58.425Z,32.24
2023-05-10T16:40:26.193Z,32.57
2023-05-10T16:42:54.001Z,32.54
2023-05-10T16:45:21.925Z,32.64
2023-05-10T16:47:49.864Z,31.88
2023-05-10T16:50:17.680Z,31.97
2023-05-10T16:52:45.729Z,31.86
2023-05-10T16:55:13.483Z,32.84
2023-05-10T16:57:41.373Z,32.70
2023-05-10T17:00:11.915Z,32.43
2023-05-10T17:02:39.934Z,32.81
2023-05-10T17:05:08.918Z,33.27
2023-05-10T17:07:36.729Z,34.14
2023-05-10T17:10:05.082Z,34.31
2023-05-10T17:12:32.991Z,34.14
2023-05-10T17:15:00.855Z,34.36
2023-05-10T17:17:28.978Z,35.09
2023-05-10T17:19:57.203Z,34.93
2023-05-10T17:22:25.313Z,35.32
2023-05-10T17:24:53.354Z,35.46
2023-05-10T17:27:21.422Z,35.38
2023-05-10T17:29:49.391Z,35.50
2023-05-10T17:32:17.383Z,35.81
2023-05-10T17:34:45.330Z,36.00
2023-05-10T17:37:13.286Z,36.28
2023-05-10T17:39:41.389Z,36.99
2023-05-10T17:42:09.241Z,37.20
2023-05-10T17:44:37.049Z,37.88
2023-05-10T17:47:04.990Z,37.32
2023-05-10T17:49:32.872Z,38.32
2023-05-10T17:52:00.786Z,37.70
2023-05-10T17:54:28.818Z,38.23
2023-05-10T17:56:58.128Z,38.01
2023-05-10T17:59:26.156Z,38.52
2023-05-10T18:01:54.065Z,38.64
2023-05-10T18:04:22.151Z,38.67
2023-05-10T18:06:50.178Z,39.12
2023-05-10T18:09:21.111Z,39.22
2023-05-10T18:11:48.876Z,39.08
2023-05-10T18:14:28.307Z,39.07
2023-05-10T18:17:04.502Z,39.72
2023-05-10T18:19:32.450Z,39.96
2023-05-10T18:22:00.371Z,39.40
2023-05-10T18:24:38.287Z,39.35
2023-05-10T18:27:09.107Z,39.81
2023-05-10T18:29:37.463Z,40.36
2023-05-10T18:32:06.698Z,40.16
2023-05-10T18:34:34.674Z,40.34
2023-05-10T18:37:07.819Z,40.51
2023-05-10T18:39:39.286Z,40.97
2023-05-10T18:42:08.227Z,41.19
2023-05-10T18:44:36.323Z,41.19
2023-05-10T18:47:04.525Z,41.51
2023-05-10T18:49:32.457Z,41.39
2023-05-10T18:52:00.473Z,41.35
2023-05-10T18:54:29.219Z,41.66
2023-05-10T18:56:58.808Z,41.89
2023-05-10T18:59:28.086Z,41.58
2023-05-10T19:01:57.479Z,41.62
2023-05-10T19:04:25.996Z,42.47
2023-05-10T19:06:54.022Z,43.12
2023-05-10T19:09:22.307Z,43.39
2023-05-10T19:11:51.599Z,43.25
2023-05-10T19:14:19.928Z,43.31
2023-05-10T19:16:48.229Z,43.08
2023-05-10T19:19:16.148Z,43.77
2023-05-10T19:21:44.700Z,43.77
2023-05-10T19:24:13.797Z,44.61
2023-05-10T19:26:41.800Z,44.34
2023-05-10T19:29:09.668Z,44.34
2023-05-10T19:31:37.699Z,44.20
2023-05-10T19:34:06.732Z,44.39
2023-05-10T19:36:35.303Z,44.77
2023-05-10T19:39:03.269Z,44.61
2023-05-10T19:41:31.172Z,44.26
2023-05-10T19:43:59.832Z,44.35
2023-05-10T19:46:27.656Z,44.75
2023-05-10T19:48:55.592Z,44.73
2023-05-10T19:51:23.381Z,44.43
2023-05-10T19:53:51.229Z,45.20
2023-05-10T19:56:19.461Z,45.66
2023-05-10T19:58:47.376Z,45.28
2023-05-10T20:01:15.309Z,45.13
2023-05-10T20:03:43.200Z,45.24
2023-05-10T20:06:11.886Z,44.35
2023-05-10T20:08:39.713Z,44.08
2023-05-10T20:11:07.564Z,44.55
2023-05-10T20:13:35.452Z,43.85
2023-05-10T20:16:05.047Z,44.01
2023-05-10T20:18:33.497Z,44.18
2023-05-10T20:21:01.458Z,44.37
2023-05-10T20:23:29.257Z,44.62
2023-05-10T20:25:57.171Z,44.79
2023-05-10T20:28:26.211Z,44.66
2023-05-10T20:30:55.682Z,45.14
2023-05-10T20:33:24.572Z,45.20
2023-05-10T20:35:52.541Z,45.27
2023-05-10T20:38:21.264Z,45.77
2023-05-10T20:40:49.200Z,45.86
2023-05-10T20:43:17.212Z,45.80
2023-05-10T20:45:44.969Z,45.82
2023-05-10T20:48:13.251Z,46.20
2023-05-10T20:50:40.999Z,46.86
2023-05-10T20:53:08.935Z,46.33
2023-05-10T20:55:36.728Z,46.44
2023-05-10T20:58:05.093Z,47.02
2023-05-10T21:00:33.403Z,47.41
2023-05-10T21:03:01.238Z,46.83
2023-05-10T21:05:29.075Z,46.92
2023-05-10T21:07:57.004Z,47.21
2023-05-10T21:10:28.263Z,46.70
2023-05-10T21:12:56.640Z,46.64
2023-05-10T21:15:25.547Z,46.23
2023-05-10T21:17:54.406Z,46.54
2023-05-10T21:20:23.440Z,46.53
2023-05-10T21:22:51.309Z,46.58
2023-05-10T21:25:19.261Z,45.94
2023-05-10T21:27:47.205Z,46.20
2023-05-10T21:30:15.194Z,46.18
2023-05-10T21:32:43.255Z,46.60
2023-05-10T21:35:11.133Z,46.80
2023-05-10T21:37:38.932Z,47.00
2023-05-10T21:40:07.788Z,46.87
2023-05-10T21:42:35.564Z,46.70
2023-05-10T21:45:04.176Z,47.05
2023-05-10T21:47:31.971Z,47.33
2023-05-10T21:50:00.113Z,47.81
2023-05-10T21:52:27.931Z,47.10
2023-05-10T21:54:55.720Z,47.80
2023-05-10T21:57:23.479Z,48.16
2023-05-10T21:59:51.299Z,48.64
2023-05-10T22:02:19.166Z,48.23
2023-05-10T22:04:46.951Z,48.56
2023-05-10T22:07:16.756Z,48.58
2023-05-10T22:09:44.590Z,48.78
2023-05-10T22:12:12.957Z,48.74
2023-05-10T22:14:41.009Z,49.57
2023-05-10T22:17:09.001Z,49.39
2023-05-10T22:19:36.803Z,49.47
2023-05-10T22:22:04.729Z,49.71
2023-05-10T22:24:32.576Z,49.64
2023-05-10T22:27:01.898Z,49.51
2023-05-10T22:29:30.277Z,49.58
2023-05-10T22:31:58.832Z,50.15
2023-05-10T22:34:26.674Z,50.15
2023-05-10T22:36:54.490Z,50.51
2023-05-10T22:39:22.498Z,51.14
2023-05-10T22:41:50.250Z,51.27
2023-05-10T22:44:18.091Z,51.03
2023-05-10T22:46:46.142Z,51.31
2023-05-10T22:49:14.162Z,51.42
2023-05-10T22:51:41.984Z,51.24
2023-05-10T22:54:09.765Z,51.44
2023-05-10T22:56:37.696Z,50.92
2023-05-10T22:59:05.503Z,50.76
2023-05-10T23:01:33.656Z,50.82
2023-05-10T23:04:01.597Z,51.29
2023-05-10T23:06:29.442Z,51.45
2023-05-10T23:08:57.369Z,51.12
2023-05-10T23:11:25.514Z,51.15
2023-05-10T23:13:53.306Z,50.95
2023-05-10T23:16:21.486Z,50.76
2023-05-10T23:18:49.433Z,50.43
2023-05-10T23:21:17.547Z,50.67
2023-05-10T23:23:45.461Z,50.93
2023-05-10T23:26:13.232Z,50.68
2023-05-10T23:28:41.082Z,50.34
2023-05-10T23:31:09.284Z,50.20
2023-05-10T23:33:37.157Z,50.82
2023-05-10T23:36:05.280Z,50.96
2023-05-10T23:38:33.104Z,50.55
2023-05-10T23:41:00.895Z,51.11
2023-05-10T23:43:28.669Z,51.00
2023-05-10T23:45:57.635Z,50.87
2023-05-10T23:48:25.603Z,51.14
2023-05-10T23:50:53.539Z,50.04
2023-05-10T23:53:21.473Z,49.98
2023-05-10T23:55:49.251Z,50.10
2023-05-10T23:58:17.028Z,49.51
